Time;durP1;ratioP1;P1;durP2;ratioP2;P2;SDS_P1;SDS_P2;PMS_P1;PMS_P2;Temp;Humidity;BMP_temperature;BMP_pressure;BME280_temperature;BME280_humidity;BME280_pressure;Samples;Min_cycle;Max_cycle;Signal;HPM_P1;HPM_P2
2022/12/14 00:01:21;;;;;;;24.63;9.38;;;;;;;-2.60;76.76;99142.53;5005092;28;20077;-55
2022/12/14 00:10:39;;;;;;;25.73;10.15;;;;;;;-2.63;77.00;99147.50;5153892;27;20403;-53
2022/12/14 00:13:06;;;;;;;27.45;8.73;;;;;;;-2.64;77.02;99139.84;5100844;28;20047;-51
2022/12/14 00:15:35;;;;;;;23.70;7.28;;;;;;;-2.65;77.40;99148.25;5115528;27;20047;-51
2022/12/14 00:18:03;;;;;;;35.03;11.02;;;;;;;-2.67;77.54;99154.94;5117746;27;20047;-53
2022/12/14 00:20:31;;;;;;;27.25;8.80;;;;;;;-2.70;77.43;99143.03;5099903;28;20043;-53
2022/12/14 00:22:57;;;;;;;25.48;8.32;;;;;;;-2.71;76.99;99143.81;5099609;28;20051;-50
2022/12/14 00:25:24;;;;;;;28.05;10.18;;;;;;;-2.73;77.34;99146.28;5116083;27;20083;-50
2022/12/14 00:27:51;;;;;;;34.95;10.23;;;;;;;-2.73;77.57;99140.38;5115142;27;20130;-50
2022/12/14 00:30:19;;;;;;;27.85;8.27;;;;;;;-2.76;76.84;99140.25;5113829;27;20134;-55
2022/12/14 00:32:46;;;;;;;30.63;8.48;;;;;;;-2.78;77.62;99141.88;5117690;27;20127;-53
2022/12/14 00:35:16;;;;;;;28.60;9.85;;;;;;;-2.81;77.42;99141.78;5114331;27;20043;-54
2022/12/14 00:37:43;;;;;;;23.58;9.00;;;;;;;-2.82;77.74;99142.56;5097700;28;20112;-52
2022/12/14 00:40:14;;;;;;;31.60;10.75;;;;;;;-2.84;76.95;99142.50;5113375;27;20044;-51
2022/12/14 00:42:40;;;;;;;33.45;8.90;;;;;;;-2.86;76.62;99145.00;5117211;27;20073;-54
2022/12/14 00:45:08;;;;;;;21.35;7.55;;;;;;;-2.87;76.98;99140.72;5116625;27;20052;-54
2022/12/14 00:47:34;;;;;;;27.73;8.85;;;;;;;-2.89;76.81;99139.81;5103271;28;20126;-51
2022/12/14 00:50:06;;;;;;;24.00;7.55;;;;;;;-2.89;77.54;99144.00;5113997;27;20054;-53
2022/12/14 00:52:33;;;;;;;28.85;10.60;;;;;;;-2.92;76.67;99139.69;5119465;27;20104;-53
2022/12/14 00:55:00;;;;;;;26.00;8.15;;;;;;;-2.92;77.03;99139.69;5115476;27;20124;-55
2022/12/14 00:57:28;;;;;;;24.98;10.02;;;;;;;-2.93;76.78;99143.06;5118483;27;20489;-54
2022/12/14 00:59:54;;;;;;;28.33;11.20;;;;;;;-2.96;77.31;99142.94;5114789;27;20089;-52
2022/12/14 01:02:21;;;;;;;26.50;8.02;;;;;;;-2.98;76.70;99149.59;5116653;27;20071;-55
2022/12/14 01:04:47;;;;;;;25.40;10.55;;;;;;;-2.99;76.90;99137.75;5115958;27;20047;-53
2022/12/14 01:07:14;;;;;;;27.60;8.70;;;;;;;-3.02;77.80;99137.63;5115245;27;20063;-50
2022/12/14 01:09:41;;;;;;;29.92;9.07;;;;;;;-3.03;77.53;99146.03;5114609;27;20126;-54
2022/12/14 01:12:07;;;;;;;26.42;7.90;;;;;;;-3.05;76.99;99145.97;5117650;27;20139;-51
2022/12/14 01:14:34;;;;;;;22.50;6.35;;;;;;;-3.07;77.35;99144.19;5117432;27;20089;-56
2022/12/14 01:17:01;;;;;;;20.90;8.52;;;;;;;-3.10;77.66;99145.81;5119874;27;20070;-49
2022/12/14 01:19:27;;;;;;;27.73;9.27;;;;;;;-3.11;77.16;99149.16;5113575;27;20122;-50
2022/12/14 01:21:54;;;;;;;29.25;9.45;;;;;;;-3.11;76.89;99148.28;5102598;28;20206;-54
2022/12/14 01:24:21;;;;;;;19.63;9.18;;;;;;;-3.14;77.69;99143.97;5099041;28;20047;-51
2022/12/14 01:26:47;;;;;;;28.98;9.40;;;;;;;-3.15;77.10;99143.91;5107330;28;20108;-52
2022/12/14 01:29:15;;;;;;;26.65;8.43;;;;;;;-3.14;78.15;99145.66;5100585;28;20069;-51
2022/12/14 01:31:41;;;;;;;16.55;6.50;;;;;;;-3.14;78.00;99154.09;5102223;28;20388;-51
2022/12/14 01:34:09;;;;;;;28.40;10.30;;;;;;;-3.15;77.54;99142.25;5099401;28;20051;-51
2022/12/14 01:36:36;;;;;;;26.02;9.93;;;;;;;-3.15;78.13;99147.31;5084726;28;20978;-53
2022/12/14 01:39:08;;;;;;;23.38;7.30;;;;;;;-3.16;77.62;99144.72;5087917;28;20676;-53
2022/12/14 01:41:38;;;;;;;27.17;7.68;;;;;;;-3.16;78.35;99145.59;5104829;28;20052;-51
2022/12/14 01:54:40;;;;;;;20.13;6.82;;;;;;;-3.15;77.86;99147.31;5062471;28;21092;-50
2022/12/14 01:57:20;;;;;;;10.48;4.57;;;;;;;-3.15;78.58;99142.25;5043153;28;20044;-48
2022/12/14 01:59:47;;;;;;;22.92;8.52;;;;;;;-3.12;78.00;99146.56;5042497;28;20136;-51
2022/12/14 02:02:16;;;;;;;21.27;7.20;;;;;;;-3.10;78.80;99148.34;5039725;28;20464;-50
2022/12/14 02:04:47;;;;;;;24.40;7.63;;;;;;;-3.10;78.36;99148.34;5045598;28;20048;-50
2022/12/14 02:07:14;;;;;;;;;;;;;;;-3.08;78.93;99152.63;5041510;28;20572;-50
2022/12/14 02:09:43;;;;;;;24.23;6.20;;;;;;;-3.06;78.38;99151.88;5038180;28;19968;-49
2022/12/14 02:14:47;;;;;;;25.90;7.65;;;;;;;-3.02;78.08;99145.22;5036996;28;20432;-50
2022/12/14 02:17:15;;;;;;;21.75;7.78;;;;;;;-2.99;78.47;99147.88;4998568;28;20050;-52
2022/12/14 02:19:45;;;;;;;16.48;5.47;;;;;;;-2.99;78.64;99148.75;5001054;28;20141;-52
2022/12/14 02:30:23;;;;;;;17.67;6.78;;;;;;;-2.94;79.09;99146.38;5047752;28;20397;-52
2022/12/14 02:35:55;;;;;;;22.20;6.15;;;;;;;-2.92;79.45;99139.69;5042278;28;20400;-52
2022/12/14 02:43:49;;;;;;;36.15;9.98;;;;;;;-2.80;78.13;99138.44;5000817;28;20773;-53
2022/12/14 02:49:45;;;;;;;28.65;9.50;;;;;;;-2.84;78.52;99137.44;5041508;27;20398;-49
2022/12/14 02:55:21;;;;;;;19.38;7.32;;;;;;;-2.84;78.47;99123.09;5057758;27;20392;-50
2022/12/14 02:58:11;;;;;;;22.35;7.30;;;;;;;-2.85;78.61;99136.59;5041749;28;20053;-51
2022/12/14 03:00:41;;;;;;;17.50;6.47;;;;;;;-2.84;78.25;99138.31;5069745;28;20041;-50
2022/12/14 03:03:07;;;;;;;25.00;9.00;;;;;;;-2.86;79.45;99134.88;5044204;28;20049;-50
2022/12/14 03:05:35;;;;;;;18.85;5.63;;;;;;;-2.89;78.94;99134.75;5042661;28;20572;-54
2022/12/14 03:08:05;;;;;;;20.95;5.07;;;;;;;-2.88;78.83;99128.88;5037321;28;20056;-52
2022/12/14 03:10:55;;;;;;;23.08;7.50;;;;;;;-2.87;78.71;99138.19;5032418;28;20057;-54
2022/12/14 03:13:47;;;;;;;9.07;3.85;;;;;;;-2.87;78.95;99133.13;5015989;28;20042;-49
2022/12/14 03:18:58;;;;;;;24.05;8.02;;;;;;;-2.89;79.40;99127.16;5043006;28;20980;-53
2022/12/14 03:21:30;;;;;;;23.23;7.20;;;;;;;-2.86;79.17;99134.88;5001021;28;20193;-52
2022/12/14 03:24:01;;;;;;;23.67;7.65;;;;;;;-2.85;79.95;99131.53;4997412;28;20100;-50
2022/12/14 03:26:33;;;;;;;19.50;6.43;;;;;;;-2.86;79.61;99124.75;5000471;28;20050;-48
2022/12/14 03:29:07;;;;;;;19.23;6.25;;;;;;;-2.87;79.93;99122.97;5001106;28;20770;-49
2022/12/14 03:34:19;;;;;;;20.60;6.20;;;;;;;-2.86;80.11;99124.75;5059612;27;20421;-50
2022/12/14 03:36:52;;;;;;;21.23;5.32;;;;;;;-2.85;80.08;99126.47;5020644;28;20390;-51
2022/12/14 03:39:29;;;;;;;15.30;4.30;;;;;;;-2.87;80.57;99128.06;5019464;28;20073;-53
2022/12/14 03:44:47;;;;;;;17.48;5.32;;;;;;;-2.85;79.30;99123.91;5053671;28;20769;-48
2022/12/14 03:50:15;;;;;;;10.95;4.10;;;;;;;-2.88;79.83;99133.06;5028438;27;20402;-49
2022/12/14 03:52:54;;;;;;;20.75;6.43;;;;;;;-2.86;80.33;99129.81;5018542;28;20144;-54
2022/12/14 03:58:37;;;;;;;15.18;4.45;;;;;;;-2.86;79.81;99118.78;5060581;27;20413;-53
2022/12/14 04:01:14;;;;;;;18.45;5.68;;;;;;;-2.87;79.79;99120.44;5034462;28;20494;-54
2022/12/14 04:04:06;;;;;;;15.50;4.78;;;;;;;-2.87;79.72;99122.13;5021031;28;20176;-50
2022/12/14 04:20:38;;;;;;;26.20;5.75;;;;;;;-2.90;79.88;99132.16;5052260;28;20077;-52
2022/12/14 04:23:12;;;;;;;13.20;5.28;;;;;;;-2.90;79.49;99138.06;5036780;28;20506;-54
2022/12/14 04:31:29;;;;;;;21.17;6.07;;;;;;;-2.95;80.13;99142.13;5050683;28;20072;-53
2022/12/14 04:34:01;;;;;;;18.38;6.25;;;;;;;-2.95;79.46;99139.59;5038831;28;20164;-53
2022/12/14 04:36:50;;;;;;;17.73;7.20;;;;;;;-2.95;79.99;99139.59;5040562;28;20072;-51
2022/12/14 04:39:25;;;;;;;17.15;6.13;;;;;;;-2.94;79.77;99141.31;5038365;28;20099;-50
2022/12/14 04:41:57;;;;;;;7.20;3.35;;;;;;;-2.96;79.37;99142.94;5040886;28;20059;-53
2022/12/14 04:44:31;;;;;;;10.45;4.78;;;;;;;-2.97;79.91;99134.47;5036972;28;20129;-51
2022/12/14 04:47:00;;;;;;;25.50;6.80;;;;;;;-2.99;79.99;99140.28;5041785;28;20073;-50
2022/12/14 04:52:14;;;;;;;25.25;8.10;;;;;;;-3.01;79.67;99149.50;5022853;28;20414;-50
2022/12/14 05:00:02;;;;;;;9.68;3.92;;;;;;;-3.15;79.74;99142.25;5078197;27;20378;-50
2022/12/14 05:05:35;;;;;;;5.88;3.53;;;;;;;-3.28;79.78;99135.00;5004869;27;20412;-51
2022/12/14 05:08:32;;;;;;;8.32;4.03;;;;;;;-3.35;79.59;99123.75;4998389;28;20046;-48
2022/12/14 05:11:07;;;;;;;22.27;6.05;;;;;;;-3.37;79.95;99133.81;4998108;28;20093;-52
2022/12/14 05:13:53;;;;;;;15.50;4.47;;;;;;;-3.38;79.40;99127.03;4999316;28;20042;-53
2022/12/14 05:16:23;;;;;;;20.30;4.90;;;;;;;-3.40;80.25;99126.13;5003097;28;20042;-54
2022/12/14 05:18:50;;;;;;;15.70;5.10;;;;;;;-3.41;79.12;99124.38;5000493;28;20088;-53
2022/12/14 05:24:03;;;;;;;27.15;7.03;;;;;;;-3.44;79.00;99134.41;5002776;28;20133;-49
2022/12/14 05:26:30;;;;;;;36.85;9.13;;;;;;;-3.43;79.06;99140.31;5000969;28;20780;-52
2022/12/14 05:28:57;;;;;;;22.08;5.85;;;;;;;-3.44;79.63;99134.41;4997279;28;20046;-47
2022/12/14 05:31:24;;;;;;;21.50;6.63;;;;;;;-3.45;79.09;99125.06;5001449;28;20080;-54
2022/12/14 05:33:51;;;;;;;16.67;5.03;;;;;;;-3.45;79.63;99127.59;4998798;28;20046;-54
2022/12/14 05:36:18;;;;;;;26.20;7.63;;;;;;;-3.46;79.22;99130.94;5004498;28;20136;-50
2022/12/14 05:38:45;;;;;;;13.98;5.18;;;;;;;-3.51;79.12;99132.44;4998869;28;20099;-51
2022/12/14 05:41:12;;;;;;;16.98;6.15;;;;;;;-3.55;79.28;99130.59;4999720;28;20560;-54
2022/12/14 05:43:39;;;;;;;17.13;5.63;;;;;;;-3.57;79.08;99132.19;5001821;28;20104;-52
2022/12/14 05:46:06;;;;;;;15.98;6.32;;;;;;;-3.57;79.23;99133.06;4992716;28;20089;-48
2022/12/14 05:48:34;;;;;;;21.77;7.32;;;;;;;-3.59;78.83;99143.94;5001632;28;20570;-55
2022/12/14 05:51:10;;;;;;;24.58;6.97;;;;;;;-3.59;79.70;99143.94;5001315;28;20079;-53
2022/12/14 05:53:38;;;;;;;23.77;7.53;;;;;;;-3.62;79.10;99142.97;4996333;28;20124;-52
2022/12/14 05:56:06;;;;;;;18.52;4.80;;;;;;;-3.59;79.89;99138.88;4998184;28;20082;-53
2022/12/14 05:58:34;;;;;;;19.88;7.93;;;;;;;-3.59;79.69;99144.78;4993617;28;20117;-49
2022/12/14 06:01:03;;;;;;;19.92;6.03;;;;;;;-3.57;78.90;99142.31;4993505;28;20082;-51
2022/12/14 06:03:29;;;;;;;35.10;9.90;;;;;;;-3.55;79.36;99153.38;4996732;28;20078;-54
2022/12/14 06:06:01;;;;;;;18.75;7.50;;;;;;;-3.53;79.96;99154.28;5001129;28;20559;-52
2022/12/14 06:08:33;;;;;;;27.40;6.57;;;;;;;-3.49;79.25;99158.66;4997652;28;20058;-53
2022/12/14 06:11:02;;;;;;;26.48;6.40;;;;;;;-3.45;79.90;99157.97;4994681;28;20047;-51
2022/12/14 06:13:29;;;;;;;26.77;8.43;;;;;;;-3.41;79.39;99158.97;5000094;28;20494;-52
2022/12/14 06:18:46;;;;;;;27.90;10.13;;;;;;;-3.34;80.11;99160.06;5043717;28;20393;-50
2022/12/14 06:21:15;;;;;;;28.15;7.47;;;;;;;-3.29;79.84;99166.16;5017056;28;20092;-50
2022/12/14 06:23:42;;;;;;;29.38;7.13;;;;;;;-3.27;79.42;99159.50;5018638;28;20504;-54
2022/12/14 06:26:10;;;;;;;16.98;5.07;;;;;;;-3.25;79.95;99161.28;5017530;28;20695;-53
2022/12/14 06:28:37;;;;;;;26.98;10.23;;;;;;;-3.27;79.20;99172.16;5018482;28;20164;-55
2022/12/14 06:31:05;;;;;;;18.73;6.63;;;;;;;-3.28;79.38;99175.50;5018050;28;20851;-51
2022/12/14 06:33:34;;;;;;;21.13;8.40;;;;;;;-3.28;79.99;99168.75;5014531;28;20080;-51
2022/12/14 06:36:01;;;;;;;30.65;8.80;;;;;;;-3.24;79.84;99167.22;5019021;28;20076;-51
2022/12/14 06:38:28;;;;;;;27.40;8.50;;;;;;;-3.22;79.83;99165.59;5015259;28;20041;-50
2022/12/14 06:40:55;;;;;;;30.35;7.95;;;;;;;-3.18;79.84;99164.91;5016755;28;20076;-50
2022/12/14 06:43:24;;;;;;;32.60;9.05;;;;;;;-3.13;79.98;99165.09;5015014;28;20669;-52
2022/12/14 06:45:52;;;;;;;25.67;7.95;;;;;;;-3.12;79.55;99162.63;5020283;28;20053;-53
2022/12/14 06:48:19;;;;;;;25.90;6.18;;;;;;;-3.12;78.74;99157.56;5014996;28;20060;-52
2022/12/14 06:50:45;;;;;;;9.65;3.35;;;;;;;-3.18;79.63;99157.31;5017218;28;20472;-52
2022/12/14 06:53:12;;;;;;;18.45;5.82;;;;;;;-3.23;78.62;99153.75;5016397;28;20073;-48
2022/12/14 06:55:39;;;;;;;24.55;8.25;;;;;;;-3.26;79.00;99159.56;5016308;28;20045;-52
2022/12/14 06:58:05;;;;;;;22.08;6.53;;;;;;;-3.27;79.19;99167.94;5017177;28;20128;-53
2022/12/14 07:00:32;;;;;;;18.25;6.00;;;;;;;-3.26;78.39;99163.75;5015148;28;20146;-52
2022/12/14 07:02:59;;;;;;;25.25;9.10;;;;;;;-3.26;79.71;99168.81;5018780;28;20053;-53
2022/12/14 07:05:25;;;;;;;29.67;9.57;;;;;;;-3.26;78.54;99168.81;5020436;28;20046;-51
2022/12/14 07:07:52;;;;;;;22.50;7.80;;;;;;;-3.28;79.05;99161.16;5020796;28;20073;-49
2022/12/14 07:10:18;;;;;;;22.77;6.43;;;;;;;-3.30;79.01;99166.97;5019280;28;20577;-53
2022/12/14 07:12:45;;;;;;;22.70;8.20;;;;;;;-3.36;79.39;99167.59;5018417;28;20088;-50
2022/12/14 07:15:12;;;;;;;30.55;7.05;;;;;;;-3.40;78.73;99160.69;5021306;28;20081;-54
2022/12/14 07:17:38;;;;;;;24.58;8.32;;;;;;;-3.46;79.34;99168.03;5018774;28;20046;-50
2022/12/14 07:20:06;;;;;;;19.27;7.03;;;;;;;-3.49;79.39;99181.44;5020505;28;20153;-53
2022/12/14 07:22:34;;;;;;;19.48;6.72;;;;;;;-3.52;78.39;99176.25;5019402;28;20104;-55
2022/12/14 07:25:01;;;;;;;25.77;5.88;;;;;;;-3.51;79.62;99178.00;5017786;28;20053;-50
2022/12/14 07:27:28;;;;;;;18.20;4.95;;;;;;;-3.51;79.43;99178.84;5016976;28;20061;-52
2022/12/14 07:29:55;;;;;;;21.05;6.10;;;;;;;-3.50;79.33;99175.53;5001599;28;20069;-52
2022/12/14 07:32:21;;;;;;;24.83;6.72;;;;;;;-3.49;79.23;99186.50;5008448;28;20050;-54
2022/12/14 07:34:48;;;;;;;16.98;5.97;;;;;;;-3.45;79.74;99184.97;5006830;28;20045;-53
2022/12/14 07:37:15;;;;;;;17.65;8.43;;;;;;;-3.41;79.08;99190.19;5008860;28;20042;-53
2022/12/14 07:39:41;;;;;;;23.35;6.90;;;;;;;-3.39;79.37;99193.69;5003234;28;20108;-50
2022/12/14 07:42:08;;;;;;;21.95;6.00;;;;;;;-3.40;79.77;99186.88;5005076;28;20608;-51
2022/12/14 07:44:34;;;;;;;15.77;5.00;;;;;;;-3.38;78.59;99185.28;5001040;28;20497;-51
2022/12/14 07:47:01;;;;;;;27.25;6.25;;;;;;;-3.39;79.73;99188.59;4996841;28;20443;-50
2022/12/14 07:49:28;;;;;;;22.58;6.80;;;;;;;-3.37;78.92;99191.22;4997580;28;20115;-51
2022/12/14 07:51:54;;;;;;;11.55;3.72;;;;;;;-3.34;79.30;99203.13;5000968;28;20105;-55
2022/12/14 07:54:22;;;;;;;5.78;3.55;;;;;;;-3.32;79.39;99209.13;4997213;28;20625;-52
2022/12/14 07:56:49;;;;;;;7.85;5.90;;;;;;;-3.32;78.77;99204.06;5000138;28;20089;-53
2022/12/14 07:59:16;;;;;;;19.70;5.18;;;;;;;-3.31;80.12;99206.63;4997043;28;20108;-51
2022/12/14 08:01:43;;;;;;;24.42;6.82;;;;;;;-3.27;79.63;99202.56;4990775;28;20601;-52
2022/12/14 08:04:13;;;;;;;27.52;7.03;;;;;;;-3.27;79.02;99207.63;4997839;28;20053;-53
2022/12/14 08:06:40;;;;;;;23.55;7.65;;;;;;;-3.24;79.92;99217.88;4998353;28;20127;-50
2022/12/14 08:09:08;;;;;;;25.58;9.10;;;;;;;-3.21;79.83;99217.13;5000478;28;20065;-52
2022/12/14 08:11:35;;;;;;;17.95;6.10;;;;;;;-3.22;79.98;99218.78;4998544;28;20576;-49
2022/12/14 08:14:06;;;;;;;17.40;7.07;;;;;;;-3.19;79.24;99215.50;4999133;28;20076;-52
2022/12/14 08:16:33;;;;;;;;;;;;;;;-3.20;79.79;99213.78;4998929;28;20105;-53
2022/12/14 08:19:00;;;;;;;13.55;4.95;;;;;;;-3.19;80.33;99220.59;4997603;28;19926;-47
2022/12/14 08:21:27;;;;;;;19.77;6.60;;;;;;;-3.16;80.03;99225.78;4999027;28;20046;-53
2022/12/14 08:23:55;;;;;;;16.70;4.68;;;;;;;-3.15;80.57;99228.38;4995730;28;20490;-52
2022/12/14 08:26:24;;;;;;;23.77;7.50;;;;;;;-3.11;80.00;99230.22;4998541;28;20103;-51
2022/12/14 08:28:59;;;;;;;25.35;6.22;;;;;;;-3.07;79.55;99226.16;4996567;28;20453;-51
2022/12/14 08:31:26;;;;;;;12.55;4.20;;;;;;;-3.05;80.23;99222.00;4998496;28;20084;-51
2022/12/14 08:33:54;;;;;;;20.83;5.78;;;;;;;-3.02;79.33;99233.91;4998751;28;20050;-50
2022/12/14 08:36:23;;;;;;;16.98;7.05;;;;;;;-3.01;79.89;99221.31;4998247;28;20112;-51
2022/12/14 08:38:53;;;;;;;16.17;4.68;;;;;;;-2.97;80.14;99227.38;4998409;28;20069;-51
2022/12/14 08:41:20;;;;;;;16.52;5.95;;;;;;;-2.93;80.10;99226.69;4996996;28;20115;-53
2022/12/14 08:43:50;;;;;;;29.70;5.32;;;;;;;-2.92;80.57;99230.94;5003974;28;20058;-51
2022/12/14 08:46:17;;;;;;;20.30;6.35;;;;;;;-2.89;79.50;99236.13;5006522;28;20077;-53
2022/12/14 08:48:44;;;;;;;20.02;4.97;;;;;;;-2.87;80.19;99229.44;5006714;28;20576;-51
2022/12/14 08:51:11;;;;;;;16.83;5.10;;;;;;;-2.84;80.55;99234.63;5008769;28;20049;-49
2022/12/14 08:53:38;;;;;;;18.77;6.50;;;;;;;-2.81;79.95;99233.03;5005984;28;20050;-50
2022/12/14 08:58:43;;;;;;;9.32;3.40;;;;;;;-2.74;79.50;99245.09;5033797;28;20413;-50
2022/12/14 09:01:14;;;;;;;19.20;4.57;;;;;;;-2.70;80.57;99252.03;5022443;28;20076;-52
2022/12/14 09:03:44;;;;;;;19.17;4.43;;;;;;;-2.67;80.23;99249.59;5028090;28;20084;-49
2022/12/14 09:06:14;;;;;;;20.80;5.50;;;;;;;-2.64;79.59;99247.19;5022805;28;20053;-52
2022/12/14 09:08:41;;;;;;;13.73;4.80;;;;;;;-2.60;80.18;99246.50;5022599;28;20046;-50
2022/12/14 09:11:11;;;;;;;22.40;4.70;;;;;;;-2.59;80.14;99250.78;5021677;28;20577;-52
2022/12/14 09:13:38;;;;;;;24.23;5.00;;;;;;;-2.52;79.97;99261.13;5021574;28;20080;-49
2022/12/14 09:16:09;;;;;;;20.77;5.65;;;;;;;-2.48;80.61;99253.72;5022501;28;20470;-49
2022/12/14 09:18:36;;;;;;;19.17;4.93;;;;;;;-2.43;80.06;99258.09;5022711;28;20050;-50
2022/12/14 09:21:02;;;;;;;15.48;4.75;;;;;;;-2.38;80.05;99259.09;5023863;28;20076;-48
2022/12/14 09:23:30;;;;;;;13.95;4.88;;;;;;;-2.35;80.57;99260.09;5022104;28;20050;-53
2022/12/14 09:28:37;;;;;;;43.92;9.88;;;;;;;-1.93;79.99;99253.09;5035334;27;20409;-51
2022/12/14 09:31:06;;;;;;;25.50;8.30;;;;;;;-2.06;80.36;99251.81;5023260;28;20049;-53
2022/12/14 09:33:33;;;;;;;14.73;5.22;;;;;;;-2.08;80.60;99254.28;5023639;28;20245;-53
2022/12/14 09:36:02;;;;;;;22.40;6.32;;;;;;;-2.05;80.82;99253.53;5026992;28;20076;-55
2022/12/14 09:38:31;;;;;;;21.42;6.63;;;;;;;-2.03;80.95;99251.91;5020687;28;20046;-54
2022/12/14 09:41:02;;;;;;;30.42;6.80;;;;;;;-2.02;80.44;99257.84;5022955;28;20084;-52
2022/12/14 09:46:21;;;;;;;26.45;7.05;;;;;;;-1.95;80.66;99259.78;5075644;27;20403;-50
2022/12/14 09:48:49;;;;;;;22.10;6.40;;;;;;;-1.92;80.47;99265.00;5050636;28;20711;-52
2022/12/14 09:51:19;;;;;;;21.45;6.32;;;;;;;-1.87;80.72;99268.53;5048434;28;20128;-53
2022/12/14 09:53:54;;;;;;;15.93;5.75;;;;;;;-1.83;80.30;99265.28;5060322;28;20400;-52
2022/12/14 09:56:27;;;;;;;17.15;6.13;;;;;;;-1.76;80.25;99275.69;5048233;28;20149;-49
2022/12/14 09:58:57;;;;;;;19.25;6.90;;;;;;;-1.70;80.32;99280.94;5044850;28;20053;-51
2022/12/14 10:01:47;;;;;;;26.42;7.40;;;;;;;-1.66;80.31;99272.63;5052620;28;20045;-54
2022/12/14 10:21:12;;;;;;;27.55;5.85;;;;;;;-1.31;80.27;99260.22;5007417;27;20420;-54
2022/12/14 10:26:40;;;;;;;19.73;5.70;;;;;;;-1.25;80.43;99268.88;5027908;27;20398;-50
2022/12/14 10:34:28;;;;;;;49.03;10.73;;;;;;;-0.95;79.87;99283.41;5022240;27;20392;-50
2022/12/14 10:53:26;;;;;;;16.33;5.90;;;;;;;-1.13;80.94;99279.44;5045634;28;20393;-51
2022/12/14 10:56:01;;;;;;;14.02;4.05;;;;;;;-1.11;81.35;99282.03;5009640;28;20104;-53
2022/12/14 10:58:28;;;;;;;8.73;2.75;;;;;;;-1.11;81.02;99288.00;5018195;28;20105;-53
2022/12/14 11:00:55;;;;;;;7.90;2.45;;;;;;;-1.10;81.45;99282.09;5000785;28;20061;-54
2022/12/14 11:03:22;;;;;;;17.38;4.38;;;;;;;-1.05;81.29;99275.47;5003746;28;20058;-52
2022/12/14 11:06:13;;;;;;;15.05;4.82;;;;;;;-1.04;81.76;99274.63;5002077;28;20368;-51
2022/12/14 11:11:21;;;;;;;17.45;5.03;;;;;;;-0.90;81.41;99286.94;5062726;28;20414;-50
2022/12/14 11:13:53;;;;;;;16.48;4.57;;;;;;;-0.87;81.61;99281.94;5028512;28;20105;-51
2022/12/14 11:16:27;;;;;;;16.55;4.80;;;;;;;-0.82;81.43;99280.41;5016396;28;20069;-57
2022/12/14 11:19:02;;;;;;;12.45;3.75;;;;;;;-0.75;81.31;99288.25;5020670;28;20042;-53
2022/12/14 11:21:32;;;;;;;10.70;4.07;;;;;;;-0.72;81.61;99283.22;5017781;28;20054;-56
2022/12/14 11:24:00;;;;;;;10.27;3.33;;;;;;;-0.71;81.50;99284.97;5017108;28;20053;-52
2022/12/14 11:26:35;;;;;;;15.00;4.05;;;;;;;-0.66;81.72;99280.88;5022452;28;20612;-51
2022/12/14 11:29:05;;;;;;;5.43;2.75;;;;;;;-0.67;81.92;99280.00;5015040;28;20045;-54
2022/12/14 11:31:36;;;;;;;7.43;4.90;;;;;;;-0.63;81.93;99286.06;5021251;28;20449;-54
2022/12/14 11:34:05;;;;;;;7.50;2.45;;;;;;;-0.60;82.11;99285.28;5013658;28;20046;-56
2022/12/14 11:42:11;;;;;;;8.93;2.38;;;;;;;-0.34;81.54;99273.31;5058936;28;20941;-48
2022/12/14 11:44:38;;;;;;;10.77;3.28;;;;;;;-0.05;81.54;99275.84;5057817;28;20083;-50
2022/12/14 11:47:11;;;;;;;8.55;3.15;;;;;;;0.18;80.71;99273.06;5060423;28;20385;-52
2022/12/14 11:57:32;;;;;;;8.10;4.57;;;;;;;0.08;78.74;99276.19;5047160;27;20413;-49
2022/12/14 12:03:01;;;;;;;26.83;9.27;;;;;;;0.51;78.71;99272.22;5099291;27;20391;-51
2022/12/14 12:05:31;;;;;;;15.38;4.75;;;;;;;0.38;78.97;99267.63;5041397;28;20057;-54
2022/12/14 12:08:01;;;;;;;13.50;4.75;;;;;;;0.37;78.86;99269.31;5038883;28;20175;-55
2022/12/14 12:13:17;;;;;;;8.77;5.45;;;;;;;0.43;79.30;99263.50;5060990;28;20913;-56
2022/12/14 12:15:51;;;;;;;13.57;4.82;;;;;;;0.36;79.12;99262.50;5058883;28;20041;-54
2022/12/14 12:18:29;;;;;;;11.07;5.35;;;;;;;0.37;78.07;99268.44;5058499;28;20086;-50
2022/12/14 12:21:21;;;;;;;9.15;4.60;;;;;;;0.36;78.61;99266.72;5062170;28;20064;-53
2022/12/14 12:24:26;;;;;;;14.75;6.78;;;;;;;0.33;78.73;99262.41;5058145;28;20144;-54
2022/12/14 12:26:56;;;;;;;13.05;4.70;;;;;;;0.26;78.23;99268.16;5058061;28;20117;-56
2022/12/14 12:29:38;;;;;;;10.35;4.88;;;;;;;0.26;78.94;99260.53;5060188;28;20609;-53
2022/12/14 12:32:18;;;;;;;9.00;4.80;;;;;;;0.28;78.24;99258.03;5060167;28;20939;-51
2022/12/14 12:34:52;;;;;;;5.93;1.50;;;;;;;0.28;78.45;99263.13;5063703;28;20456;-55
2022/12/14 12:37:29;;;;;;;8.63;3.28;;;;;;;0.35;79.25;99265.00;5062246;28;20503;-53
2022/12/14 12:40:02;;;;;;;10.75;4.60;;;;;;;0.35;78.37;99259.91;5062688;28;20045;-55
2022/12/14 12:42:39;;;;;;;9.82;5.15;;;;;;;0.31;78.48;99258.97;5060544;28;20098;-54
2022/12/14 12:45:17;;;;;;;6.15;3.67;;;;;;;0.33;78.79;99261.53;5065118;28;20084;-55
2022/12/14 12:47:51;;;;;;;15.85;4.53;;;;;;;0.35;78.40;99270.97;5062624;28;20574;-55
2022/12/14 12:50:22;;;;;;;7.85;3.65;;;;;;;0.38;79.01;99267.63;5059698;28;20052;-51
2022/12/14 12:53:05;;;;;;;9.10;3.80;;;;;;;0.33;78.54;99264.09;5058569;28;20102;-55
2022/12/14 12:55:40;;;;;;;3.90;2.83;;;;;;;0.34;79.70;99268.38;5057652;28;20049;-52
2022/12/14 12:58:19;;;;;;;4.32;3.15;;;;;;;0.41;79.15;99260.09;5058275;28;20068;-50
2022/12/14 13:00:50;;;;;;;6.22;3.30;;;;;;;0.39;78.88;99261.72;5061158;28;20087;-50
2022/12/14 13:03:24;;;;;;;10.95;3.78;;;;;;;0.35;78.75;99259.91;5058744;28;20080;-55
2022/12/14 13:05:53;;;;;;;5.00;3.75;;;;;;;0.40;78.82;99263.44;5061981;28;20128;-52
2022/12/14 13:08:33;;;;;;;5.70;3.22;;;;;;;0.42;78.37;99261.78;5057953;28;20092;-53
2022/12/14 13:11:05;;;;;;;5.75;3.17;;;;;;;0.44;78.74;99266.94;5042268;28;20088;-54
2022/12/14 13:13:56;;;;;;;4.78;3.25;;;;;;;0.38;78.90;99267.63;5057366;28;20045;-52
2022/12/14 13:16:31;;;;;;;3.92;2.67;;;;;;;0.46;79.28;99262.72;5058294;28;20122;-54
2022/12/14 13:19:13;;;;;;;3.92;1.50;;;;;;;0.45;78.92;99266.97;5060099;28;20352;-53
2022/12/14 13:22:00;;;;;;;3.13;1.13;;;;;;;0.42;79.03;99261.78;5059101;28;20043;-56
2022/12/14 13:24:33;;;;;;;6.00;2.83;;;;;;;0.41;79.20;99260.09;5045281;28;20091;-54
2022/12/14 13:35:19;;;;;;;9.50;1.25;;;;;;;0.45;79.03;99256.78;5031143;28;20402;-54
2022/12/14 13:43:39;;;;;;;3.78;1.95;;;;;;;0.69;78.84;99270.97;5041321;28;20417;-50
2022/12/14 13:46:15;;;;;;;3.22;1.02;;;;;;;0.69;77.69;99265.88;5020330;28;20041;-49
2022/12/14 13:48:43;;;;;;;3.17;0.82;;;;;;;0.61;78.50;99262.25;5019203;28;20048;-56
2022/12/14 13:51:23;;;;;;;1.48;0.30;;;;;;;0.61;77.74;99262.25;5021628;28;20154;-51
2022/12/14 13:53:55;;;;;;;5.07;0.63;;;;;;;0.63;77.62;99265.69;5018081;28;20100;-50
2022/12/14 13:56:26;;;;;;;0.95;0.50;;;;;;;0.65;78.61;99271.72;5019293;28;20046;-52
2022/12/14 13:59:03;;;;;;;2.08;1.40;;;;;;;0.57;77.56;99255.38;5022115;28;20054;-50
2022/12/14 14:07:13;;;;;;;2.00;1.90;;;;;;;0.61;78.31;99272.47;5087629;27;20396;-49
2022/12/14 14:12:36;;;;;;;1.55;0.88;;;;;;;0.58;77.80;99272.38;5064939;28;20382;-54
2022/12/14 14:15:21;;;;;;;2.22;1.67;;;;;;;0.62;77.84;99274.19;5060118;28;20139;-52
2022/12/14 14:17:53;;;;;;;2.08;0.82;;;;;;;0.59;77.91;99274.09;5062057;28;20049;-51
2022/12/14 14:20:59;;;;;;;1.80;1.42;;;;;;;0.58;78.10;99264.72;5061971;28;20558;-54
2022/12/14 14:23:29;;;;;;;3.13;2.78;;;;;;;0.59;77.26;99274.09;5050298;28;21602;-52
2022/12/14 14:26:17;;;;;;;3.10;1.23;;;;;;;0.54;77.65;99275.69;5062184;28;20131;-56
2022/12/14 14:28:45;;;;;;;1.30;0.82;;;;;;;0.56;77.53;99279.09;5055632;28;20442;-52
2022/12/14 14:31:15;;;;;;;2.58;0.70;;;;;;;0.56;77.42;99276.56;5063838;28;20075;-51
2022/12/14 14:33:47;;;;;;;1.33;1.20;;;;;;;0.51;77.47;99282.41;5064964;28;20072;-49
2022/12/14 14:36:32;;;;;;;3.15;1.45;;;;;;;0.54;76.74;99285.88;5063114;28;20066;-51
2022/12/14 14:39:02;;;;;;;3.67;0.60;;;;;;;0.49;77.24;99289.16;5059515;28;20131;-53
2022/12/14 14:41:51;;;;;;;1.80;1.27;;;;;;;0.48;77.20;99286.56;5063207;28;20622;-50
2022/12/14 14:44:24;;;;;;;5.38;0.80;;;;;;;0.48;76.99;99292.50;5061527;28;20083;-49
2022/12/14 14:46:51;;;;;;;2.72;1.70;;;;;;;0.46;77.31;99299.28;5058301;28;20123;-54
2022/12/14 14:49:24;;;;;;;2.22;1.05;;;;;;;0.47;77.33;99301.00;5061797;28;20554;-55
2022/12/14 14:51:51;;;;;;;11.10;1.45;;;;;;;0.44;76.83;99306.00;5061501;28;20123;-52
2022/12/14 14:56:54;;;;;;;8.50;2.47;;;;;;;0.46;77.12;99309.47;5043832;28;20388;-51